Time;durP1;ratioP1;P1;durP2;ratioP2;P2;SDS_P1;SDS_P2;PMS_P1;PMS_P2;Temp;Humidity;BMP_temperature;BMP_pressure;BME280_temperature;BME280_humidity;BME280_pressure;Samples;Min_cycle;Max_cycle;Signal;HPM_P1;HPM_P2
2023/03/06 00:01:17;;;;;;;6.55;5.07;;;6.60;99.90;;;;;;5090117;28;20572;-75
2023/03/06 00:03:43;;;;;;;5.70;4.10;;;6.60;99.90;;;;;;5090846;28;20129;-75
2023/03/06 00:06:08;;;;;;;9.25;4.55;;;6.60;99.90;;;;;;5089886;28;20056;-74
2023/03/06 00:08:34;;;;;;;7.38;4.55;;;6.60;99.90;;;;;;5089842;28;20455;-75
2023/03/06 00:11:00;;;;;;;7.75;4.65;;;6.60;99.90;;;;;;5090762;28;20149;-74
2023/03/06 00:13:28;;;;;;;7.38;4.45;;;6.60;99.90;;;;;;5089866;28;20024;-75
2023/03/06 00:15:59;;;;;;;11.30;5.15;;;6.50;99.90;;;;;;5090417;28;20111;-73
2023/03/06 00:18:25;;;;;;;8.40;4.88;;;6.50;99.90;;;;;;5090060;28;20035;-74
2023/03/06 00:20:51;;;;;;;8.15;4.88;;;6.50;99.90;;;;;;5090320;28;20032;-73
2023/03/06 00:23:17;;;;;;;6.38;4.45;;;6.50;99.90;;;;;;5090086;28;20137;-73
2023/03/06 00:25:44;;;;;;;6.18;4.38;;;6.50;99.90;;;;;;5088927;28;20463;-74
2023/03/06 00:28:11;;;;;;;5.88;4.60;;;6.50;99.90;;;;;;5090893;28;20419;-74
2023/03/06 00:30:37;;;;;;;6.35;4.50;;;6.50;99.90;;;;;;5089747;28;20119;-73
2023/03/06 00:33:02;;;;;;;5.20;4.28;;;6.50;99.90;;;;;;5090763;28;20497;-74
2023/03/06 00:35:28;;;;;;;6.72;4.93;;;6.50;99.90;;;;;;5090087;28;20078;-73
2023/03/06 00:37:54;;;;;;;10.13;5.47;;;6.50;99.90;;;;;;5090621;28;20027;-74
2023/03/06 00:40:20;;;;;;;8.68;4.63;;;6.50;99.90;;;;;;5090168;28;20085;-74
2023/03/06 00:42:47;;;;;;;8.55;5.03;;;6.50;99.90;;;;;;5091156;28;20032;-74
2023/03/06 00:45:13;;;;;;;9.38;6.03;;;6.50;99.90;;;;;;5089205;28;20035;-76
2023/03/06 00:47:39;;;;;;;9.32;5.50;;;6.50;99.90;;;;;;5090621;28;20032;-74
2023/03/06 00:50:06;;;;;;;8.70;5.13;;;6.60;99.90;;;;;;5090732;28;20346;-72
2023/03/06 00:52:32;;;;;;;13.23;7.07;;;6.50;99.90;;;;;;5089596;28;20028;-73
2023/03/06 00:54:57;;;;;;;8.80;4.40;;;6.50;99.90;;;;;;5090479;28;20488;-73
2023/03/06 00:57:23;;;;;;;7.90;5.38;;;6.50;99.90;;;;;;5089551;28;20024;-73
2023/03/06 00:59:49;;;;;;;5.75;4.72;;;6.50;99.90;;;;;;5088885;28;20024;-73
2023/03/06 01:02:15;;;;;;;7.25;4.82;;;6.50;99.90;;;;;;5088309;28;20485;-77
2023/03/06 01:04:41;;;;;;;7.00;4.60;;;6.50;99.90;;;;;;5090844;28;20077;-72
2023/03/06 01:07:06;;;;;;;8.75;5.10;;;6.60;99.90;;;;;;5089951;28;20097;-73
2023/03/06 01:09:32;;;;;;;6.13;4.80;;;6.60;99.90;;;;;;5089227;28;20028;-73
2023/03/06 01:11:58;;;;;;;7.35;4.72;;;6.60;99.90;;;;;;5090171;28;20032;-73
2023/03/06 01:14:24;;;;;;;5.13;4.63;;;6.60;99.90;;;;;;5089778;28;20089;-74
2023/03/06 01:16:50;;;;;;;5.85;4.25;;;6.60;99.90;;;;;;5090853;28;20032;-73
2023/03/06 01:19:17;;;;;;;7.20;4.68;;;6.60;99.90;;;;;;5094326;28;20375;-77
2023/03/06 01:21:42;;;;;;;6.22;4.57;;;6.50;99.90;;;;;;5094417;28;20112;-74
2023/03/06 01:24:08;;;;;;;5.93;4.45;;;6.50;99.90;;;;;;5093871;28;20462;-73
2023/03/06 01:26:34;;;;;;;5.90;4.88;;;6.50;99.90;;;;;;5093904;28;20123;-73
2023/03/06 01:29:00;;;;;;;7.50;4.70;;;6.50;99.90;;;;;;5094585;28;20059;-73
2023/03/06 01:31:26;;;;;;;8.13;4.85;;;6.60;99.90;;;;;;5092671;28;20134;-73
2023/03/06 01:33:52;;;;;;;8.75;4.68;;;6.50;99.90;;;;;;5094439;28;20426;-74
2023/03/06 01:36:18;;;;;;;10.48;4.78;;;6.60;99.90;;;;;;5093857;28;20024;-77
2023/03/06 01:38:44;;;;;;;7.85;4.97;;;6.60;99.90;;;;;;5094067;28;20382;-73
2023/03/06 01:41:14;;;;;;;6.70;4.63;;;6.60;99.90;;;;;;5093472;28;20029;-73
2023/03/06 01:43:45;;;;;;;6.38;4.85;;;6.50;99.90;;;;;;5093783;28;20038;-74
2023/03/06 01:46:19;;;;;;;7.03;4.78;;;6.50;99.90;;;;;;5094023;28;20350;-74
2023/03/06 01:48:47;;;;;;;7.35;4.55;;;6.50;99.90;;;;;;5094223;28;20434;-73
2023/03/06 01:51:14;;;;;;;6.78;4.75;;;6.50;99.90;;;;;;5094070;28;20062;-73
2023/03/06 01:53:40;;;;;;;6.10;4.20;;;6.50;99.90;;;;;;5093358;28;20027;-73
2023/03/06 01:56:06;;;;;;;5.72;4.53;;;6.50;99.90;;;;;;5093975;28;20028;-73
2023/03/06 01:58:32;;;;;;;5.78;4.47;;;6.50;99.90;;;;;;5091852;28;20032;-73
2023/03/06 02:00:58;;;;;;;8.15;4.53;;;6.60;99.90;;;;;;5094095;28;20496;-74
2023/03/06 02:03:26;;;;;;;5.10;4.40;;;6.50;99.90;;;;;;5093231;28;20363;-74
2023/03/06 02:05:52;;;;;;;6.43;4.63;;;6.50;99.90;;;;;;5093678;28;20491;-74
2023/03/06 02:08:21;;;;;;;5.20;4.68;;;6.50;99.90;;;;;;5093849;28;20024;-78
2023/03/06 02:11:14;;;;;;;7.95;4.72;;;6.50;99.90;;;;;;5093728;28;20359;-74
2023/03/06 02:13:41;;;;;;;7.88;4.72;;;6.60;99.90;;;;;;5093373;28;20013;-74
2023/03/06 02:16:09;;;;;;;6.55;4.85;;;6.60;99.90;;;;;;5093731;28;20036;-74
2023/03/06 02:18:36;;;;;;;6.93;4.57;;;6.60;99.90;;;;;;5093221;28;20100;-72
2023/03/06 02:21:05;;;;;;;6.70;4.70;;;6.50;99.90;;;;;;5093580;28;20017;-73
2023/03/06 02:23:55;;;;;;;6.18;4.72;;;6.60;99.90;;;;;;5092408;28;20028;-73
2023/03/06 02:26:22;;;;;;;8.40;4.65;;;6.50;99.90;;;;;;5092336;28;20043;-77
2023/03/06 02:28:48;;;;;;;7.50;4.38;;;6.50;99.90;;;;;;5090438;28;20347;-73
2023/03/06 02:31:26;;;;;;;7.03;5.10;;;6.50;99.90;;;;;;5092013;28;20026;-73
2023/03/06 02:34:18;;;;;;;9.93;4.97;;;6.50;99.90;;;;;;5091881;28;20039;-72
2023/03/06 02:36:52;;;;;;;8.35;4.93;;;6.50;99.90;;;;;;5082675;28;20040;-72
2023/03/06 02:39:21;;;;;;;6.85;5.22;;;6.50;99.90;;;;;;5092170;28;20063;-73
2023/03/06 02:41:47;;;;;;;9.23;4.70;;;6.40;99.90;;;;;;5092070;28;20442;-73
2023/03/06 02:44:12;;;;;;;7.43;4.70;;;6.50;99.90;;;;;;5091973;28;20031;-73
2023/03/06 02:46:38;;;;;;;5.97;4.68;;;6.50;99.90;;;;;;5091243;28;20024;-73
2023/03/06 02:49:04;;;;;;;7.30;5.45;;;6.40;99.90;;;;;;5091741;28;20059;-73
2023/03/06 02:51:29;;;;;;;5.93;4.65;;;6.50;99.90;;;;;;5090892;28;20441;-74
2023/03/06 02:53:55;;;;;;;5.18;4.30;;;6.50;99.90;;;;;;5091169;28;20032;-74
2023/03/06 02:56:21;;;;;;;4.97;4.10;;;6.50;99.90;;;;;;5091027;28;20107;-76
2023/03/06 02:58:47;;;;;;;6.15;4.28;;;6.50;99.90;;;;;;5092537;28;20089;-73
2023/03/06 03:01:13;;;;;;;6.28;4.80;;;6.40;99.90;;;;;;5093324;28;20032;-73
2023/03/06 03:03:39;;;;;;;7.95;4.47;;;6.50;99.90;;;;;;5092784;28;20020;-73
2023/03/06 03:06:06;;;;;;;6.43;4.43;;;6.50;99.90;;;;;;5093462;28;20020;-74
2023/03/06 03:08:32;;;;;;;6.03;4.30;;;6.50;99.90;;;;;;5091503;28;20078;-74
2023/03/06 03:10:59;;;;;;;6.10;4.35;;;6.50;99.90;;;;;;5091485;28;20061;-74
2023/03/06 03:13:24;;;;;;;9.05;4.97;;;6.50;99.90;;;;;;5091369;28;20020;-78
2023/03/06 03:16:01;;;;;;;6.65;4.97;;;6.50;99.90;;;;;;5090269;28;20085;-74
2023/03/06 03:18:27;;;;;;;7.85;5.00;;;6.50;99.90;;;;;;5090937;28;20028;-75
2023/03/06 03:20:54;;;;;;;7.25;5.05;;;6.50;99.90;;;;;;5091607;28;20032;-74
2023/03/06 03:23:20;;;;;;;7.76;5.50;;;6.50;99.90;;;;;;5062104;28;1367470;-74
2023/03/06 03:25:46;;;;;;;6.13;4.70;;;6.50;99.90;;;;;;5091864;28;20024;-73
2023/03/06 03:28:11;;;;;;;9.93;5.00;;;6.50;99.90;;;;;;5092190;28;20024;-73
2023/03/06 03:30:39;;;;;;;7.28;5.40;;;6.50;99.90;;;;;;5091781;28;20032;-74
2023/03/06 03:33:05;;;;;;;8.85;5.32;;;6.50;99.90;;;;;;5092132;28;20434;-74
2023/03/06 03:35:31;;;;;;;6.13;5.40;;;6.50;99.90;;;;;;5091717;28;20108;-72
2023/03/06 03:37:56;;;;;;;9.20;5.03;;;6.50;99.90;;;;;;5092371;28;20102;-73
2023/03/06 03:40:22;;;;;;;8.48;5.40;;;6.50;99.90;;;;;;5091243;28;20104;-73
2023/03/06 03:42:48;;;;;;;8.52;5.45;;;6.40;99.90;;;;;;5090925;28;20386;-74
2023/03/06 03:45:14;;;;;;;9.05;5.75;;;6.40;99.90;;;;;;5091873;28;20043;-73
2023/03/06 03:47:39;;;;;;;7.95;4.70;;;6.40;99.90;;;;;;5091136;28;20024;-73
2023/03/06 03:50:06;;;;;;;7.40;4.47;;;6.40;99.90;;;;;;5091498;28;20036;-73
2023/03/06 03:52:32;;;;;;;7.72;4.90;;;6.40;99.90;;;;;;5091183;28;20093;-73
2023/03/06 03:54:58;;;;;;;8.52;4.82;;;6.40;99.90;;;;;;5091589;28;20031;-73
2023/03/06 03:57:24;;;;;;;8.43;5.20;;;6.40;99.90;;;;;;5091575;28;20414;-73
2023/03/06 03:59:50;;;;;;;5.53;4.90;;;6.40;99.90;;;;;;5091215;28;20042;-73
2023/03/06 04:02:15;;;;;;;7.25;4.97;;;6.40;99.90;;;;;;5091622;28;20118;-73
2023/03/06 04:04:42;;;;;;;7.10;4.97;;;6.40;99.90;;;;;;5090819;28;20157;-74
2023/03/06 04:07:08;;;;;;;6.10;4.57;;;6.40;99.90;;;;;;5090389;28;20035;-74
2023/03/06 04:09:34;;;;;;;6.40;4.80;;;6.40;99.90;;;;;;5090949;28;20044;-74
2023/03/06 04:12:00;;;;;;;6.97;5.03;;;6.40;99.90;;;;;;5091071;28;20475;-74
2023/03/06 04:14:25;;;;;;;6.03;4.53;;;6.40;99.90;;;;;;5091740;28;20110;-74
2023/03/06 04:16:51;;;;;;;6.38;4.97;;;6.40;99.90;;;;;;5091045;28;20375;-74
2023/03/06 04:19:17;;;;;;;6.72;4.97;;;6.40;99.90;;;;;;5091544;28;20343;-74
2023/03/06 04:21:43;;;;;;;5.60;4.43;;;6.40;99.90;;;;;;5090887;28;20414;-74
2023/03/06 04:24:08;;;;;;;5.65;4.60;;;6.40;99.90;;;;;;5090976;28;20075;-74
2023/03/06 04:26:34;;;;;;;8.13;4.57;;;6.40;99.90;;;;;;5091298;28;20103;-73
2023/03/06 04:29:02;;;;;;;7.38;4.57;;;6.40;99.90;;;;;;5091465;28;20462;-73
2023/03/06 04:31:28;;;;;;;7.80;4.57;;;6.40;99.90;;;;;;5091050;28;20023;-77
2023/03/06 04:33:53;;;;;;;5.20;4.53;;;6.40;99.90;;;;;;5090973;28;20016;-74
2023/03/06 04:36:30;;;;;;;5.15;4.60;;;6.40;99.90;;;;;;5091362;28;20416;-74
2023/03/06 04:38:56;;;;;;;5.35;4.40;;;6.40;99.90;;;;;;5091488;28;20023;-73
2023/03/06 04:41:22;;;;;;;7.93;4.80;;;6.40;99.90;;;;;;5091112;28;20054;-73
2023/03/06 04:43:48;;;;;;;5.43;4.45;;;6.40;99.90;;;;;;5090503;28;20051;-73
2023/03/06 04:46:14;;;;;;;6.03;4.70;;;6.40;99.90;;;;;;5091387;28;20028;-74
2023/03/06 04:48:39;;;;;;;6.20;4.68;;;6.30;99.90;;;;;;5090235;28;20024;-74
2023/03/06 04:51:06;;;;;;;6.63;4.57;;;6.30;99.90;;;;;;5091171;28;20031;-74
2023/03/06 04:53:31;;;;;;;4.90;4.50;;;6.30;99.90;;;;;;5090373;28;20481;-77
2023/03/06 04:55:58;;;;;;;6.05;4.55;;;6.20;99.90;;;;;;5091315;28;20063;-74
2023/03/06 04:58:24;;;;;;;5.10;4.47;;;6.30;99.90;;;;;;5091252;28;20110;-74
2023/03/06 05:00:50;;;;;;;5.10;4.47;;;6.20;99.90;;;;;;5090144;28;20602;-74
2023/03/06 05:03:16;;;;;;;8.68;4.43;;;6.20;99.90;;;;;;5091316;28;20133;-73
2023/03/06 05:05:43;;;;;;;5.18;4.40;;;6.20;99.90;;;;;;5089018;28;20410;-74
2023/03/06 05:08:16;;;;;;;5.70;4.55;;;6.20;99.90;;;;;;5091075;28;20459;-74
2023/03/06 05:10:43;;;;;;;6.68;4.32;;;6.20;99.90;;;;;;5090153;28;20398;-74
2023/03/06 05:13:09;;;;;;;6.38;4.78;;;6.10;99.90;;;;;;5090648;28;20029;-74
2023/03/06 05:15:35;;;;;;;6.68;4.38;;;6.20;99.90;;;;;;5090150;28;20390;-74
2023/03/06 05:18:02;;;;;;;6.97;4.50;;;6.20;99.90;;;;;;5090985;28;20097;-74
2023/03/06 05:20:28;;;;;;;6.90;4.47;;;6.20;99.90;;;;;;5091309;28;20071;-73
2023/03/06 05:22:54;;;;;;;6.68;4.70;;;6.10;99.90;;;;;;5090535;28;20072;-74
2023/03/06 05:25:20;;;;;;;5.68;4.38;;;6.20;99.90;;;;;;5090965;28;20044;-74
2023/03/06 05:27:46;;;;;;;4.25;3.85;;;6.10;99.90;;;;;;5090362;28;20034;-74
2023/03/06 05:30:13;;;;;;;5.80;4.35;;;6.20;99.90;;;;;;5090723;28;20492;-73
2023/03/06 05:32:38;;;;;;;5.10;3.55;;;6.10;99.90;;;;;;5090473;28;20066;-73
2023/03/06 05:35:05;;;;;;;5.63;3.78;;;6.20;99.90;;;;;;5090504;28;20463;-73
2023/03/06 05:37:31;;;;;;;5.80;3.63;;;6.20;99.90;;;;;;5090648;28;20494;-73
2023/03/06 05:39:57;;;;;;;5.00;3.83;;;6.20;99.90;;;;;;5089800;28;20089;-73
2023/03/06 05:42:23;;;;;;;5.75;2.78;;;6.20;99.90;;;;;;5090848;28;20024;-74
2023/03/06 05:44:48;;;;;;;4.80;2.58;;;6.20;99.90;;;;;;5089910;28;20028;-74
2023/03/06 05:47:14;;;;;;;4.32;2.40;;;6.20;99.90;;;;;;5090406;28;20478;-73
2023/03/06 05:49:40;;;;;;;5.63;2.10;;;6.10;99.90;;;;;;5089682;28;20107;-74
2023/03/06 05:52:06;;;;;;;2.38;2.00;;;6.10;99.90;;;;;;5090620;28;20047;-73
2023/03/06 05:54:35;;;;;;;2.30;2.10;;;6.10;99.90;;;;;;5090093;28;20032;-73
2023/03/06 05:57:01;;;;;;;4.35;3.40;;;6.10;99.90;;;;;;5090108;28;20518;-73
2023/03/06 05:59:27;;;;;;;6.15;3.38;;;6.10;99.90;;;;;;5090429;28;20043;-73
2023/03/06 06:01:54;;;;;;;3.47;2.58;;;6.10;99.90;;;;;;5089337;28;20035;-73
2023/03/06 06:04:21;;;;;;;2.90;2.63;;;6.10;99.90;;;;;;5093246;28;20089;-73
2023/03/06 06:06:51;;;;;;;6.05;2.80;;;6.10;99.90;;;;;;5092952;28;20522;-73
2023/03/06 06:09:17;;;;;;;4.40;2.78;;;6.20;99.90;;;;;;5093853;28;20036;-74
2023/03/06 06:11:42;;;;;;;5.22;3.20;;;6.20;99.90;;;;;;5093213;28;20097;-74
2023/03/06 06:14:08;;;;;;;3.70;3.17;;;6.20;99.90;;;;;;5094047;28;20207;-74
2023/03/06 06:16:34;;;;;;;6.45;3.13;;;6.20;99.90;;;;;;5093784;28;20032;-73
2023/03/06 06:18:59;;;;;;;4.68;3.17;;;6.20;99.90;;;;;;5092947;28;20060;-73
2023/03/06 06:21:25;;;;;;;4.32;3.30;;;6.20;99.90;;;;;;5093658;28;20551;-73
2023/03/06 06:23:51;;;;;;;4.43;3.15;;;6.20;99.90;;;;;;5092712;28;20128;-74
2023/03/06 06:26:16;;;;;;;4.35;3.13;;;6.20;99.90;;;;;;5093491;28;20040;-73
2023/03/06 06:28:42;;;;;;;4.40;3.17;;;6.20;99.90;;;;;;5092833;28;20028;-74
2023/03/06 06:31:11;;;;;;;6.65;3.10;;;6.20;99.90;;;;;;5092918;28;20032;-74
2023/03/06 06:33:37;;;;;;;4.30;3.30;;;6.20;99.90;;;;;;5093105;28;20474;-77
2023/03/06 06:36:03;;;;;;;5.35;3.90;;;6.20;99.90;;;;;;5091306;28;20410;-73
2023/03/06 06:38:29;;;;;;;7.22;3.30;;;6.20;99.90;;;;;;5074901;28;20062;-73
2023/03/06 06:40:55;;;;;;;4.85;3.10;;;6.20;99.90;;;;;;5090899;28;20059;-73
2023/03/06 06:43:20;;;;;;;3.85;3.20;;;6.20;99.90;;;;;;5092834;28;20031;-73
2023/03/06 06:45:47;;;;;;;3.53;3.03;;;6.20;99.90;;;;;;5092245;28;20502;-73
2023/03/06 06:48:13;;;;;;;5.10;2.80;;;6.20;99.90;;;;;;5092505;28;20161;-74
2023/03/06 06:50:38;;;;;;;5.68;3.63;;;6.20;99.90;;;;;;5092188;28;20108;-76
2023/03/06 06:53:04;;;;;;;3.45;3.15;;;6.10;99.90;;;;;;5092489;28;20035;-73
2023/03/06 06:55:30;;;;;;;4.80;3.20;;;6.10;99.90;;;;;;5091398;28;20481;-72
2023/03/06 06:57:55;;;;;;;5.57;3.10;;;6.10;99.90;;;;;;5090781;28;20096;-73
2023/03/06 07:00:21;;;;;;;4.07;2.80;;;6.10;99.90;;;;;;5092760;28;20024;-73
2023/03/06 07:02:48;;;;;;;5.43;3.67;;;6.10;99.90;;;;;;5092060;28;20474;-73
2023/03/06 07:05:14;;;;;;;5.55;3.50;;;6.10;99.90;;;;;;5092262;28;20028;-73
2023/03/06 07:07:41;;;;;;;6.57;3.08;;;6.20;99.90;;;;;;5090583;28;20355;-77
2023/03/06 07:10:13;;;;;;;5.90;2.83;;;6.10;99.90;;;;;;5092135;28;20401;-72
2023/03/06 07:12:39;;;;;;;3.38;2.92;;;6.10;99.90;;;;;;5092466;28;20467;-73
2023/03/06 07:15:06;;;;;;;6.18;2.72;;;6.10;99.90;;;;;;5091158;28;20077;-74
2023/03/06 07:17:32;;;;;;;5.15;2.40;;;6.00;99.90;;;;;;5092903;28;20382;-74
2023/03/06 07:19:58;;;;;;;3.42;2.50;;;6.00;99.90;;;;;;5092253;28;20027;-72
2023/03/06 07:22:24;;;;;;;3.80;2.78;;;6.00;99.90;;;;;;5091047;28;20032;-73
2023/03/06 07:24:50;;;;;;;4.30;3.03;;;6.00;99.90;;;;;;5091703;28;20127;-72
2023/03/06 07:27:16;;;;;;;3.42;2.47;;;6.00;99.90;;;;;;5092488;28;20093;-73
2023/03/06 07:29:42;;;;;;;5.55;2.45;;;6.10;99.90;;;;;;5091834;28;20503;-76
2023/03/06 07:32:08;;;;;;;5.80;2.53;;;6.10;99.90;;;;;;5091842;28;20024;-74
2023/03/06 07:34:34;;;;;;;3.58;2.30;;;6.10;99.90;;;;;;5090710;28;20368;-73
2023/03/06 07:37:00;;;;;;;4.45;2.42;;;6.10;99.90;;;;;;5091409;28;20031;-74
2023/03/06 07:39:27;;;;;;;2.80;2.13;;;6.00;99.90;;;;;;5092060;28;20458;-73
2023/03/06 07:41:52;;;;;;;3.47;2.40;;;6.00;99.90;;;;;;5091174;28;20073;-75
2023/03/06 07:44:18;;;;;;;2.60;2.10;;;6.00;99.90;;;;;;5091728;28;20036;-74
2023/03/06 07:46:44;;;;;;;2.83;2.10;;;6.00;99.90;;;;;;5089724;28;20020;-73
2023/03/06 07:49:10;;;;;;;5.18;2.10;;;6.00;99.90;;;;;;5091534;28;20423;-74
2023/03/06 07:51:35;;;;;;;3.38;2.10;;;6.10;99.90;;;;;;5090120;28;20028;-73
2023/03/06 07:54:01;;;;;;;4.43;2.15;;;6.10;99.90;;;;;;5091504;28;20055;-74
2023/03/06 07:56:27;;;;;;;4.40;2.70;;;6.10;99.90;;;;;;5091572;28;20080;-73
2023/03/06 07:58:52;;;;;;;4.93;2.92;;;6.20;99.90;;;;;;5090940;28;20028;-74
2023/03/06 08:01:22;;;;;;;3.20;2.67;;;6.20;99.90;;;;;;5092243;28;20020;-74
2023/03/06 08:03:48;;;;;;;3.00;2.42;;;6.20;99.90;;;;;;5090706;28;20027;-74
2023/03/06 08:06:21;;;;;;;4.78;2.65;;;6.30;99.90;;;;;;5092441;28;20106;-73
2023/03/06 08:08:48;;;;;;;4.40;2.55;;;6.30;99.90;;;;;;5091939;28;20103;-74
2023/03/06 08:11:15;;;;;;;3.00;2.20;;;6.30;99.90;;;;;;5092621;28;20039;-73
2023/03/06 08:13:42;;;;;;;4.07;2.25;;;6.20;99.90;;;;;;5092219;28;20144;-73
2023/03/06 08:16:08;;;;;;;4.60;2.60;;;6.20;99.90;;;;;;5093295;28;20033;-74
2023/03/06 08:18:35;;;;;;;4.95;1.90;;;6.20;99.90;;;;;;5092466;28;20024;-73
2023/03/06 08:21:10;;;;;;;2.67;1.98;;;6.20;99.90;;;;;;5092450;28;20147;-75
2023/03/06 08:23:36;;;;;;;3.53;2.08;;;6.20;99.90;;;;;;5092662;28;20024;-73
2023/03/06 08:26:10;;;;;;;6.00;2.67;;;6.20;99.90;;;;;;5091352;28;20062;-74
2023/03/06 08:28:36;;;;;;;3.28;2.47;;;6.30;99.90;;;;;;5091538;28;20050;-74
2023/03/06 08:31:10;;;;;;;3.97;2.20;;;6.30;99.90;;;;;;5090925;28;20032;-73
2023/03/06 08:33:36;;;;;;;5.95;2.30;;;6.20;99.90;;;;;;5091233;28;20024;-73
2023/03/06 08:36:02;;;;;;;3.95;2.40;;;6.30;99.90;;;;;;5089334;28;20343;-73
2023/03/06 08:38:28;;;;;;;6.28;2.78;;;6.30;99.90;;;;;;5091335;28;20027;-72
2023/03/06 08:40:54;;;;;;;6.40;3.40;;;6.40;99.90;;;;;;5089263;28;20027;-73
2023/03/06 08:43:19;;;;;;;6.95;3.97;;;6.40;99.90;;;;;;5091201;28;20020;-73
2023/03/06 08:45:51;;;;;;;6.10;3.55;;;6.40;99.90;;;;;;5090878;28;20028;-77
2023/03/06 08:48:16;;;;;;;8.98;4.38;;;6.50;99.90;;;;;;5090886;28;20071;-73
2023/03/06 08:50:44;;;;;;;12.90;6.07;;;6.60;99.90;;;;;;5090643;28;20478;-73
2023/03/06 08:53:09;;;;;;;11.88;6.35;;;6.60;99.90;;;;;;5090344;28;20028;-73
2023/03/06 08:55:36;;;;;;;14.75;6.15;;;6.60;99.90;;;;;;5090536;28;20027;-73
2023/03/06 08:58:03;;;;;;;10.70;5.13;;;6.60;99.90;;;;;;5090244;28;20058;-73
2023/03/06 09:00:29;;;;;;;9.10;5.05;;;6.70;99.90;;;;;;5090868;28;20028;-73
2023/03/06 09:02:55;;;;;;;10.48;4.82;;;6.70;99.90;;;;;;5090294;28;20374;-74
2023/03/06 09:05:21;;;;;;;7.63;4.78;;;6.80;99.90;;;;;;5090768;28;20024;-74
2023/03/06 09:07:47;;;;;;;10.13;4.88;;;6.80;99.90;;;;;;5090272;28;20032;-77
2023/03/06 09:10:17;;;;;;;10.00;4.82;;;6.90;99.90;;;;;;5090508;28;20111;-73
2023/03/06 09:12:44;;;;;;;7.97;5.30;;;7.00;99.90;;;;;;5090897;28;20050;-73
2023/03/06 09:15:10;;;;;;;11.95;6.13;;;7.00;99.90;;;;;;5090184;28;20024;-73
2023/03/06 09:17:36;;;;;;;10.15;5.78;;;7.10;99.90;;;;;;5090474;28;20032;-73
2023/03/06 09:20:02;;;;;;;11.93;6.43;;;7.20;99.90;;;;;;5088746;28;20028;-74
2023/03/06 09:22:27;;;;;;;10.73;6.13;;;7.20;99.90;;;;;;5090251;28;20356;-73
2023/03/06 09:24:53;;;;;;;10.05;6.43;;;7.30;99.90;;;;;;5090142;28;20121;-74
2023/03/06 09:27:19;;;;;;;10.05;7.20;;;7.30;99.90;;;;;;5089495;28;20032;-73
2023/03/06 09:29:44;;;;;;;10.25;7.43;;;7.40;99.90;;;;;;5090301;28;20044;-73
2023/03/06 09:32:10;;;;;;;15.20;8.68;;;7.40;99.90;;;;;;5089878;28;20099;-73
2023/03/06 09:34:36;;;;;;;12.65;8.30;;;7.40;99.90;;;;;;5090418;28;20034;-74
2023/03/06 09:37:02;;;;;;;12.15;8.35;;;7.40;99.90;;;;;;5090098;28;20028;-73
2023/03/06 09:39:28;;;;;;;13.95;8.77;;;7.40;99.90;;;;;;5094132;28;20028;-73
2023/03/06 09:41:56;;;;;;;12.30;9.13;;;7.40;99.90;;;;;;5093821;28;20020;-74
2023/03/06 09:44:29;;;;;;;14.25;9.75;;;7.40;99.90;;;;;;5094168;28;20032;-73
2023/03/06 09:47:13;;;;;;;18.08;10.70;;;7.40;99.90;;;;;;5093783;28;20024;-73
2023/03/06 09:49:58;;;;;;;13.35;9.00;;;7.40;99.90;;;;;;5094314;28;20032;-73
2023/03/06 09:52:42;;;;;;;12.02;8.32;;;7.40;99.90;;;;;;5093865;28;20066;-73
2023/03/06 09:55:31;;;;;;;9.13;6.97;;;7.30;99.90;;;;;;5093303;28;20144;-73
2023/03/06 09:57:57;;;;;;;10.35;6.70;;;7.30;99.90;;;;;;5093497;28;20072;-73
2023/03/06 10:00:29;;;;;;;9.82;6.45;;;7.30;99.90;;;;;;5093648;28;20096;-73
2023/03/06 10:02:59;;;;;;;9.00;5.85;;;7.30;99.90;;;;;;5093959;28;20036;-73
2023/03/06 10:05:33;;;;;;;9.13;6.57;;;7.30;99.90;;;;;;5094684;28;20438;-72
2023/03/06 10:08:20;;;;;;;11.95;6.13;;;7.40;99.90;;;;;;5093822;28;20425;-74
2023/03/06 10:10:50;;;;;;;8.68;5.03;;;7.30;99.90;;;;;;5094261;28;20032;-74
2023/03/06 10:13:23;;;;;;;6.75;4.30;;;7.30;99.90;;;;;;5094286;28;20027;-74
2023/03/06 10:15:53;;;;;;;8.50;4.05;;;7.40;99.90;;;;;;5093802;28;20020;-73
2023/03/06 10:18:19;;;;;;;4.55;3.30;;;7.40;99.90;;;;;;5093704;28;20476;-74
2023/03/06 10:21:02;;;;;;;8.05;3.15;;;7.50;99.90;;;;;;5093627;28;20032;-74
2023/03/06 10:23:37;;;;;;;4.95;2.20;;;7.40;99.90;;;;;;5093137;28;20028;-72
2023/03/06 10:26:10;;;;;;;5.70;2.40;;;7.40;99.90;;;;;;5092763;28;20123;-73
2023/03/06 10:29:00;;;;;;;4.82;2.10;;;7.50;99.90;;;;;;5093563;28;20109;-74
2023/03/06 10:31:27;;;;;;;3.97;2.10;;;7.50;99.90;;;;;;5092449;28;20063;-74
2023/03/06 10:34:21;;;;;;;3.40;2.25;;;7.50;99.90;;;;;;5093625;28;20478;-77
2023/03/06 10:36:47;;;;;;;5.30;2.42;;;7.50;99.90;;;;;;5093217;28;20055;-72
2023/03/06 10:39:19;;;;;;;5.55;2.40;;;7.60;99.90;;;;;;5092728;28;20058;-73
2023/03/06 10:41:45;;;;;;;3.85;2.20;;;7.60;99.90;;;;;;5093289;28;20020;-73
2023/03/06 10:44:10;;;;;;;8.93;2.70;;;7.60;99.90;;;;;;5092754;28;20058;-73
2023/03/06 10:46:42;;;;;;;6.30;3.22;;;7.60;99.90;;;;;;5093007;28;20115;-73
2023/03/06 10:49:31;;;;;;;4.40;2.85;;;7.60;99.90;;;;;;5092062;28;20070;-73
2023/03/06 10:52:05;;;;;;;4.78;2.90;;;7.60;99.90;;;;;;5092325;28;20102;-74
2023/03/06 10:54:43;;;;;;;5.28;2.80;;;7.60;99.90;;;;;;5093144;28;20065;-73
2023/03/06 10:57:28;;;;;;;3.95;2.58;;;7.70;99.90;;;;;;5092580;28;20028;-74
2023/03/06 11:00:00;;;;;;;5.43;2.28;;;7.70;99.90;;;;;;5092377;28;20039;-77
2023/03/06 11:02:38;;;;;;;5.03;2.25;;;7.80;99.90;;;;;;5092933;28;20016;-72
2023/03/06 11:05:05;;;;;;;5.15;3.10;;;7.80;99.90;;;;;;5092102;28;20044;-73
2023/03/06 11:07:33;;;;;;;5.63;3.53;;;7.80;99.90;;;;;;5092659;28;20031;-72
2023/03/06 11:10:15;;;;;;;11.43;4.63;;;7.80;99.90;;;;;;5091998;28;20438;-73
2023/03/06 11:12:42;;;;;;;9.23;5.10;;;7.80;99.90;;;;;;5092651;28;20107;-73
2023/03/06 11:15:16;;;;;;;9.57;5.90;;;7.70;99.90;;;;;;5091958;28;20028;-73
2023/03/06 11:17:59;;;;;;;11.18;5.40;;;7.70;99.90;;;;;;5092594;28;20507;-74
2023/03/06 11:20:26;;;;;;;14.00;5.72;;;7.80;99.90;;;;;;5091907;28;20023;-73
2023/03/06 11:23:10;;;;;;;10.45;6.22;;;7.80;99.90;;;;;;5092247;28;20040;-73
2023/03/06 11:26:02;;;;;;;11.60;5.82;;;7.90;99.90;;;;;;5092495;28;20055;-73
2023/03/06 11:28:36;;;;;;;9.98;5.32;;;8.00;99.90;;;;;;5091824;28;20092;-73
2023/03/06 11:31:08;;;;;;;8.70;5.35;;;8.10;99.90;;;;;;5090795;28;20029;-74
2023/03/06 11:33:52;;;;;;;9.70;5.70;;;8.00;99.90;;;;;;5092317;28;20478;-73
2023/03/06 11:36:24;;;;;;;11.02;6.15;;;8.10;99.90;;;;;;5091580;28;20024;-74
2023/03/06 11:38:53;;;;;;;11.65;5.88;;;8.20;99.90;;;;;;5092210;28;20035;-73
2023/03/06 11:41:27;;;;;;;8.52;5.45;;;8.20;99.90;;;;;;5091766;28;20485;-74
2023/03/06 11:43:56;;;;;;;9.10;5.78;;;8.20;99.90;;;;;;5092135;28;20327;-73
2023/03/06 11:46:31;;;;;;;8.02;5.40;;;8.30;99.90;;;;;;5091889;28;20032;-73
2023/03/06 11:49:16;;;;;;;9.52;5.18;;;8.40;99.90;;;;;;5091919;28;20031;-76
2023/03/06 11:51:50;;;;;;;7.95;5.13;;;8.40;99.90;;;;;;5092480;28;20118;-73
2023/03/06 11:54:16;;;;;;;7.95;4.90;;;8.40;99.90;;;;;;5091809;28;20071;-73
2023/03/06 11:57:05;;;;;;;8.30;4.82;;;8.50;99.90;;;;;;5092410;28;20062;-74
2023/03/06 11:59:50;;;;;;;6.32;4.13;;;8.60;99.90;;;;;;5092058;28;20036;-74
2023/03/06 12:02:45;;;;;;;8.07;4.60;;;8.70;99.90;;;;;;5091685;28;20032;-73
2023/03/06 12:05:23;;;;;;;7.90;4.18;;;8.70;99.90;;;;;;5071614;28;20035;-74
2023/03/06 12:08:02;;;;;;;6.65;4.60;;;8.80;99.90;;;;;;5091936;28;20103;-74
2023/03/06 12:10:42;;;;;;;6.15;3.38;;;8.90;99.90;;;;;;5092000;28;20036;-74
2023/03/06 12:13:24;;;;;;;4.85;3.60;;;8.90;99.90;;;;;;5091297;28;20080;-73
2023/03/06 12:16:11;;;;;;;4.22;3.00;;;8.80;99.90;;;;;;5092014;28;20057;-75
2023/03/06 12:18:53;;;;;;;3.15;2.65;;;8.90;99.90;;;;;;5092517;28;20058;-73
2023/03/06 12:21:39;;;;;;;3.53;2.72;;;8.90;99.90;;;;;;5091013;28;20055;-72
2023/03/06 12:24:50;;;;;;;3.22;2.08;;;8.90;99.90;;;;;;5090170;28;20044;-73
2023/03/06 12:27:40;;;;;;;3.25;2.00;;;8.90;99.90;;;;;;5089105;28;20024;-74
2023/03/06 12:30:28;;;;;;;1.50;1.40;;;8.90;99.90;;;;;;5089720;28;20055;-73
2023/03/06 12:33:05;;;;;;;1.33;0.90;;;8.90;99.90;;;;;;5090561;28;20026;-74
2023/03/06 12:36:16;;;;;;;1.98;0.90;;;8.90;99.90;;;;;;5090338;28;20039;-73
2023/03/06 12:38:57;;;;;;;2.83;1.13;;;8.80;99.90;;;;;;5090724;28;20024;-73
2023/03/06 12:41:44;;;;;;;1.95;0.85;;;8.80;99.90;;;;;;5090179;28;20382;-74
2023/03/06 12:44:47;;;;;;;1.50;1.00;;;8.80;99.90;;;;;;5089832;28;20028;-73
2023/03/06 12:47:26;;;;;;;1.63;0.90;;;8.80;99.90;;;;;;5088680;28;20051;-74
2023/03/06 12:50:01;;;;;;;1.52;1.10;;;8.80;99.90;;;;;;5089238;28;20124;-75
2023/03/06 12:52:30;;;;;;;3.58;1.10;;;8.70;99.90;;;;;;5089949;28;20063;-74
2023/03/06 12:54:58;;;;;;;2.83;1.13;;;8.70;99.90;;;;;;5090318;28;20020;-74
2023/03/06 12:57:25;;;;;;;1.80;1.00;;;8.70;99.90;;;;;;5089809;28;20135;-74
2023/03/06 12:59:52;;;;;;;1.63;1.02;;;8.60;99.90;;;;;;5089942;28;20039;-74
2023/03/06 13:02:40;;;;;;;2.20;1.20;;;8.60;99.90;;;;;;5090173;28;20351;-74
2023/03/06 13:05:21;;;;;;;2.35;1.60;;;8.60;99.90;;;;;;5089799;28;20024;-75
2023/03/06 13:08:14;;;;;;;2.60;1.73;;;8.50;99.90;;;;;;5087837;28;20115;-75